createdAt,value
2023-05-20T00:00:36.983Z,0.00
2023-05-20T00:01:36.973Z,0.00
2023-05-20T00:02:37.066Z,0.00
2023-05-20T00:03:37.186Z,0.00
2023-05-20T00:04:36.993Z,0.00
2023-05-20T00:05:36.976Z,0.00
2023-05-20T00:06:36.971Z,0.00
2023-05-20T00:07:37.040Z,0.00
2023-05-20T00:08:36.975Z,0.00
2023-05-20T00:09:36.982Z,0.00
2023-05-20T00:10:36.978Z,0.00
2023-05-20T00:11:36.978Z,0.00
2023-05-20T00:12:36.982Z,0.00
2023-05-20T00:13:36.989Z,0.00
2023-05-20T00:14:36.971Z,0.00
2023-05-20T00:15:37.141Z,0.00
2023-05-20T00:16:37.000Z,0.00
2023-05-20T00:17:36.991Z,0.00
2023-05-20T00:18:36.985Z,0.00
2023-05-20T00:19:36.976Z,0.00
2023-05-20T00:20:36.976Z,0.00
2023-05-20T00:21:36.981Z,0.00
2023-05-20T00:22:36.972Z,0.00
2023-05-20T00:23:36.996Z,0.00
2023-05-20T00:24:36.971Z,0.00
2023-05-20T00:25:37.178Z,0.00
2023-05-20T00:26:36.977Z,0.00
2023-05-20T00:27:36.976Z,0.00
2023-05-20T00:28:36.973Z,0.00
2023-05-20T00:29:36.972Z,0.00
2023-05-20T00:30:36.983Z,0.00
2023-05-20T00:31:36.992Z,0.00
2023-05-20T00:32:37.006Z,0.00
2023-05-20T00:33:36.979Z,0.00
2023-05-20T00:34:36.970Z,0.00
2023-05-20T00:35:37.042Z,0.00
2023-05-20T00:36:36.968Z,0.00
2023-05-20T00:37:36.975Z,0.00
2023-05-20T00:38:36.976Z,0.00
2023-05-20T00:39:37.136Z,0.00
2023-05-20T00:40:36.965Z,0.00
2023-05-20T00:41:36.973Z,0.00
2023-05-20T00:42:36.974Z,0.00
2023-05-20T00:43:36.975Z,0.00
2023-05-20T00:44:36.971Z,0.00
2023-05-20T00:45:37.198Z,0.00
2023-05-20T00:46:37.032Z,0.00
2023-05-20T00:47:37.049Z,0.00
2023-05-20T00:48:36.967Z,0.00
2023-05-20T00:49:36.973Z,0.00
2023-05-20T00:50:36.968Z,0.00
2023-05-20T00:51:36.977Z,0.00
2023-05-20T00:52:36.975Z,0.00
2023-05-20T00:53:36.972Z,0.00
2023-05-20T00:54:36.965Z,0.00
2023-05-20T00:55:36.996Z,0.00
2023-05-20T00:56:36.970Z,0.00
2023-05-20T00:57:36.967Z,0.00
2023-05-20T00:58:37.092Z,0.00
2023-05-20T00:59:36.975Z,0.00
2023-05-20T01:00:36.963Z,0.00
2023-05-20T01:01:37.022Z,0.00
2023-05-20T01:02:37.085Z,0.00
2023-05-20T01:03:37.070Z,0.00
2023-05-20T01:04:36.961Z,0.00
2023-05-20T01:05:38.667Z,0.00
2023-05-20T01:06:36.969Z,0.00
2023-05-20T01:07:36.971Z,0.00
2023-05-20T01:08:36.965Z,0.00
2023-05-20T01:09:36.967Z,0.00
2023-05-20T01:10:36.966Z,0.00
2023-05-20T01:11:36.988Z,0.00
2023-05-20T01:12:36.959Z,0.00
2023-05-20T01:13:36.995Z,0.00
2023-05-20T01:14:36.967Z,0.00
2023-05-20T01:15:37.296Z,0.00
2023-05-20T01:16:37.076Z,0.00
2023-05-20T01:17:36.985Z,0.00
2023-05-20T01:18:36.961Z,0.00
2023-05-20T01:19:36.961Z,0.00
2023-05-20T01:20:36.977Z,0.00
2023-05-20T01:21:36.960Z,0.00
2023-05-20T01:22:36.964Z,0.00
2023-05-20T01:23:36.967Z,0.00
2023-05-20T01:24:36.965Z,0.00
2023-05-20T01:25:37.067Z,0.00
2023-05-20T01:26:36.961Z,0.00
2023-05-20T01:27:36.991Z,0.00
2023-05-20T01:28:36.964Z,0.00
2023-05-20T01:29:36.958Z,0.00
2023-05-20T01:30:36.974Z,0.00
2023-05-20T01:31:37.010Z,0.00
2023-05-20T01:32:37.030Z,0.00
2023-05-20T01:33:36.962Z,0.00
2023-05-20T01:34:36.957Z,0.00
2023-05-20T01:35:37.138Z,0.00
2023-05-20T01:36:36.956Z,0.00
2023-05-20T01:37:36.958Z,0.00
2023-05-20T01:38:36.969Z,0.00
2023-05-20T01:39:36.960Z,0.00
2023-05-20T01:40:36.954Z,0.00
2023-05-20T01:41:36.958Z,0.00
2023-05-20T01:42:36.979Z,0.00
2023-05-20T01:43:37.050Z,0.00
2023-05-20T01:44:36.963Z,0.00
2023-05-20T01:45:37.183Z,0.00
2023-05-20T01:46:37.010Z,0.00
2023-05-20T01:47:36.972Z,0.00
2023-05-20T01:48:36.955Z,0.00
2023-05-20T01:49:36.970Z,0.00
2023-05-20T01:50:36.964Z,0.00
2023-05-20T01:51:36.953Z,0.00
2023-05-20T01:52:36.956Z,0.00
2023-05-20T01:53:36.946Z,0.00
2023-05-20T01:54:36.953Z,0.00
2023-05-20T01:55:36.946Z,0.00
2023-05-20T01:56:36.966Z,0.00
2023-05-20T01:57:36.949Z,0.00
2023-05-20T01:58:36.955Z,0.00
2023-05-20T01:59:36.981Z,0.00
2023-05-20T02:00:37.009Z,0.00
2023-05-20T02:01:36.959Z,0.00
2023-05-20T02:02:37.211Z,0.00
2023-05-20T02:03:36.944Z,0.00
2023-05-20T02:04:36.947Z,0.00
2023-05-20T02:05:37.295Z,0.00
2023-05-20T02:06:36.970Z,0.00
2023-05-20T02:07:36.956Z,0.00
2023-05-20T02:08:37.034Z,0.00
2023-05-20T02:09:36.945Z,0.00
2023-05-20T02:10:36.946Z,0.00
2023-05-20T02:11:36.971Z,0.00
2023-05-20T02:12:36.955Z,0.00
2023-05-20T02:13:36.973Z,0.00
2023-05-20T02:14:36.966Z,0.00
2023-05-20T02:15:37.054Z,0.00
2023-05-20T02:16:36.984Z,0.00
2023-05-20T02:17:36.950Z,0.00
2023-05-20T02:18:36.960Z,0.00
2023-05-20T02:19:36.959Z,0.00
2023-05-20T02:20:36.955Z,0.00
2023-05-20T02:21:36.947Z,0.00
2023-05-20T02:22:36.948Z,0.00
2023-05-20T02:23:36.948Z,0.00
2023-05-20T02:24:36.951Z,0.00
2023-05-20T02:25:36.961Z,0.00
2023-05-20T02:26:36.952Z,0.00
2023-05-20T02:27:36.946Z,0.00
2023-05-20T02:28:36.952Z,0.00
2023-05-20T02:29:36.950Z,0.00
2023-05-20T02:30:36.949Z,4.00
2023-05-20T02:31:36.969Z,4.00
2023-05-20T02:32:36.997Z,4.00
2023-05-20T02:33:36.984Z,0.00
2023-05-20T02:34:36.945Z,0.00
2023-05-20T02:35:37.008Z,0.00
2023-05-20T02:36:36.955Z,0.00
2023-05-20T02:37:36.946Z,4.00
2023-05-20T02:38:36.946Z,4.00
2023-05-20T02:39:36.942Z,4.00
2023-05-20T02:40:36.949Z,0.00
2023-05-20T02:41:36.944Z,4.00
2023-05-20T02:42:36.942Z,4.00
2023-05-20T02:43:36.943Z,4.00
2023-05-20T02:44:36.949Z,4.00
2023-05-20T02:45:36.978Z,8.00
2023-05-20T02:46:36.978Z,4.00
2023-05-20T02:47:37.081Z,8.00
2023-05-20T02:48:36.945Z,8.00
2023-05-20T02:49:36.942Z,8.00
2023-05-20T02:50:36.943Z,8.00
2023-05-20T02:51:36.973Z,12.00
2023-05-20T02:52:36.935Z,8.00
2023-05-20T02:53:36.944Z,12.00
2023-05-20T02:54:36.955Z,12.00
2023-05-20T02:55:36.934Z,16.00
2023-05-20T02:56:36.939Z,12.00
2023-05-20T02:57:36.938Z,16.00
2023-05-20T02:58:36.962Z,16.00
2023-05-20T02:59:36.946Z,20.00
2023-05-20T03:00:36.942Z,20.00
2023-05-20T03:01:36.967Z,24.00
2023-05-20T03:02:36.966Z,28.00
2023-05-20T03:03:36.962Z,28.00
2023-05-20T03:04:37.012Z,32.00
2023-05-20T03:05:36.931Z,32.00
2023-05-20T03:06:36.934Z,40.00
2023-05-20T03:07:36.936Z,40.00
2023-05-20T03:08:36.943Z,40.00
2023-05-20T03:09:36.933Z,44.00
2023-05-20T03:10:36.945Z,44.00
2023-05-20T03:11:36.960Z,48.00
2023-05-20T03:12:36.932Z,56.00
2023-05-20T03:13:36.932Z,56.00
2023-05-20T03:14:36.935Z,64.00
2023-05-20T03:15:37.150Z,64.00
2023-05-20T03:16:37.000Z,72.00
2023-05-20T03:17:36.952Z,80.00
2023-05-20T03:18:36.936Z,84.00
2023-05-20T03:19:36.957Z,92.00
2023-05-20T03:20:36.974Z,100.00
2023-05-20T03:21:36.933Z,100.00
2023-05-20T03:22:36.940Z,108.00
2023-05-20T03:23:36.932Z,112.00
2023-05-20T03:24:36.937Z,120.00
2023-05-20T03:25:36.924Z,120.00
2023-05-20T03:26:36.932Z,128.00
2023-05-20T03:27:36.937Z,132.00
2023-05-20T03:28:36.936Z,144.00
2023-05-20T03:29:36.928Z,156.00
2023-05-20T03:30:36.933Z,160.00
2023-05-20T03:31:36.978Z,164.00
2023-05-20T03:32:37.001Z,164.00
2023-05-20T03:33:36.924Z,168.00
2023-05-20T03:34:36.932Z,176.00
2023-05-20T03:35:37.232Z,180.00
2023-05-20T03:36:36.925Z,192.00
2023-05-20T03:37:36.925Z,200.00
2023-05-20T03:38:36.924Z,208.00
2023-05-20T03:39:36.937Z,208.00
2023-05-20T03:40:36.924Z,204.00
2023-05-20T03:41:36.923Z,200.00
2023-05-20T03:42:36.930Z,208.00
2023-05-20T03:43:36.926Z,216.00
2023-05-20T03:44:36.933Z,228.00
2023-05-20T03:45:37.131Z,232.00
2023-05-20T03:46:37.001Z,236.00
2023-05-20T03:47:36.941Z,240.00
2023-05-20T03:48:36.954Z,244.00
2023-05-20T03:49:36.919Z,248.00
2023-05-20T03:50:36.925Z,264.00
2023-05-20T03:51:36.950Z,276.00
2023-05-20T03:52:36.924Z,276.00
2023-05-20T03:53:36.919Z,280.00
2023-05-20T03:54:36.929Z,280.00
2023-05-20T03:55:37.050Z,272.00
2023-05-20T03:56:36.921Z,252.00
2023-05-20T03:57:36.915Z,256.00
2023-05-20T03:58:36.917Z,264.00
2023-05-20T03:59:36.922Z,276.00
2023-05-20T04:00:36.958Z,316.00
2023-05-20T04:01:36.939Z,340.00
2023-05-20T04:02:36.995Z,344.00
2023-05-20T04:03:36.986Z,328.00
2023-05-20T04:04:36.922Z,328.00
2023-05-20T04:05:37.108Z,348.00
2023-05-20T04:06:36.928Z,372.00
2023-05-20T04:07:36.975Z,384.00
2023-05-20T04:08:36.916Z,388.00
2023-05-20T04:09:36.919Z,372.00
2023-05-20T04:10:36.914Z,356.00
2023-05-20T04:11:36.912Z,352.00
2023-05-20T04:12:36.921Z,360.00
2023-05-20T04:13:36.927Z,368.00
2023-05-20T04:14:36.922Z,388.00
2023-05-20T04:15:36.949Z,416.00
2023-05-20T04:16:36.953Z,452.00
2023-05-20T04:17:36.955Z,500.00
2023-05-20T04:18:36.914Z,524.00
2023-05-20T04:19:36.919Z,552.00
2023-05-20T04:20:36.914Z,596.00
2023-05-20T04:21:36.913Z,624.00
2023-05-20T04:22:36.922Z,644.00
2023-05-20T04:23:36.952Z,656.00
2023-05-20T04:24:36.915Z,656.00
2023-05-20T04:25:37.325Z,636.00
2023-05-20T04:26:36.913Z,636.00
2023-05-20T04:27:36.913Z,656.00
2023-05-20T04:28:36.909Z,684.00
2023-05-20T04:29:36.915Z,708.00
2023-05-20T04:30:36.917Z,736.00
2023-05-20T04:31:36.922Z,748.00
2023-05-20T04:32:36.958Z,752.00
2023-05-20T04:33:36.908Z,748.00
2023-05-20T04:34:36.919Z,760.00
2023-05-20T04:35:36.927Z,784.00
2023-05-20T04:36:36.908Z,808.00
2023-05-20T04:37:36.906Z,812.00
2023-05-20T04:38:36.911Z,784.00
2023-05-20T04:39:36.947Z,792.00
2023-05-20T04:40:36.919Z,836.00
2023-05-20T04:41:36.906Z,852.00
2023-05-20T04:42:36.931Z,852.00
2023-05-20T04:43:36.905Z,824.00
2023-05-20T04:44:36.932Z,772.00
2023-05-20T04:45:36.916Z,736.00
2023-05-20T04:46:36.936Z,684.00
2023-05-20T04:47:37.013Z,660.00
2023-05-20T04:48:36.908Z,644.00
2023-05-20T04:49:36.920Z,608.00
2023-05-20T04:50:36.913Z,576.00
2023-05-20T04:51:36.910Z,564.00
2023-05-20T04:52:36.917Z,552.00
2023-05-20T04:53:36.923Z,568.00
2023-05-20T04:54:36.907Z,588.00
2023-05-20T04:55:36.930Z,612.00
2023-05-20T04:56:36.911Z,628.00
2023-05-20T04:57:36.903Z,624.00
2023-05-20T04:58:36.907Z,616.00
2023-05-20T04:59:36.921Z,600.00
2023-05-20T05:00:36.910Z,628.00
2023-05-20T05:01:36.966Z,672.00
2023-05-20T05:02:36.941Z,784.00
2023-05-20T05:03:37.084Z,924.00
2023-05-20T05:04:36.945Z,948.00
2023-05-20T05:05:36.933Z,996.00
2023-05-20T05:06:36.908Z,1072.00
2023-05-20T05:07:36.919Z,1108.00
2023-05-20T05:08:36.923Z,1140.00
2023-05-20T05:09:36.902Z,1140.00
2023-05-20T05:10:36.909Z,1084.00
2023-05-20T05:11:36.932Z,1036.00
2023-05-20T05:12:36.914Z,960.00
2023-05-20T05:13:36.913Z,908.00
2023-05-20T05:14:36.907Z,908.00
2023-05-20T05:15:37.038Z,932.00
2023-05-20T05:16:36.937Z,968.00
2023-05-20T05:17:36.922Z,1032.00
2023-05-20T05:18:36.910Z,1112.00
2023-05-20T05:19:37.230Z,1212.00
2023-05-20T05:20:36.905Z,1340.00
2023-05-20T05:21:36.912Z,1496.00
2023-05-20T05:22:36.923Z,1480.00
2023-05-20T05:23:36.910Z,1408.00
2023-05-20T05:24:36.912Z,1276.00
2023-05-20T05:25:36.910Z,1180.00
2023-05-20T05:26:36.918Z,1144.00
2023-05-20T05:27:36.935Z,1156.00
2023-05-20T05:28:36.915Z,1216.00
2023-05-20T05:29:36.909Z,1324.00
2023-05-20T05:30:36.913Z,1504.00
2023-05-20T05:31:36.904Z,1708.00
2023-05-20T05:32:37.032Z,1788.00
2023-05-20T05:33:37.005Z,1800.00
2023-05-20T05:34:36.916Z,1768.00
2023-05-20T05:35:36.904Z,1700.00
2023-05-20T05:36:36.905Z,1636.00
2023-05-20T05:37:36.904Z,1636.00
2023-05-20T05:38:36.903Z,1648.00
2023-05-20T05:39:36.904Z,1620.00
2023-05-20T05:40:36.896Z,1528.00
2023-05-20T05:41:36.904Z,1452.00
2023-05-20T05:42:36.906Z,1440.00
2023-05-20T05:43:36.947Z,1472.00
2023-05-20T05:44:36.905Z,1440.00
2023-05-20T05:45:36.904Z,1376.00
2023-05-20T05:46:36.927Z,1376.00
2023-05-20T05:47:36.907Z,1328.00
2023-05-20T05:48:36.903Z,1248.00
2023-05-20T05:49:36.903Z,1300.00
2023-05-20T05:50:36.897Z,1428.00
2023-05-20T05:51:38.823Z,1520.00
2023-05-20T05:52:36.947Z,1528.00
2023-05-20T05:53:36.901Z,1664.00
2023-05-20T05:54:36.897Z,1832.00
2023-05-20T05:55:36.911Z,1968.00
2023-05-20T05:56:36.896Z,2096.00
2023-05-20T05:57:36.907Z,2084.00
2023-05-20T05:58:36.911Z,2060.00
2023-05-20T05:59:36.933Z,2108.00
2023-05-20T06:00:36.952Z,2220.00
2023-05-20T06:01:36.902Z,2220.00
2023-05-20T06:02:37.130Z,2296.00
2023-05-20T06:03:37.038Z,2492.00
2023-05-20T06:04:36.900Z,2544.00
2023-05-20T06:05:37.087Z,2364.00
2023-05-20T06:06:36.900Z,1936.00
2023-05-20T06:07:36.903Z,1684.00
2023-05-20T06:08:36.896Z,1716.00
2023-05-20T06:09:36.904Z,1872.00
2023-05-20T06:10:36.907Z,1936.00
2023-05-20T06:11:36.906Z,1792.00
2023-05-20T06:12:36.906Z,1624.00
2023-05-20T06:13:36.902Z,1712.00
2023-05-20T06:14:36.905Z,1984.00
2023-05-20T06:15:37.135Z,2260.00
2023-05-20T06:16:36.940Z,2344.00
2023-05-20T06:17:36.927Z,2500.00
2023-05-20T06:18:36.898Z,2620.00
2023-05-20T06:19:36.945Z,2532.00
2023-05-20T06:20:36.888Z,2292.00
2023-05-20T06:21:36.924Z,2076.00
2023-05-20T06:22:36.905Z,2024.00
2023-05-20T06:23:36.901Z,2188.00
2023-05-20T06:24:36.905Z,2436.00
2023-05-20T06:25:36.900Z,2552.00
2023-05-20T06:26:36.897Z,2188.00
2023-05-20T06:27:36.902Z,2080.00
2023-05-20T06:28:36.894Z,2204.00
2023-05-20T06:29:36.902Z,2280.00
2023-05-20T06:30:36.924Z,2208.00
2023-05-20T06:31:36.923Z,2328.00
2023-05-20T06:32:36.919Z,2544.00
2023-05-20T06:33:36.935Z,2588.00
2023-05-20T06:34:36.898Z,2420.00
2023-05-20T06:35:36.960Z,2340.00
2023-05-20T06:36:36.897Z,2436.00
2023-05-20T06:37:36.912Z,2588.00
2023-05-20T06:38:36.901Z,2748.00
2023-05-20T06:39:36.908Z,2996.00
2023-05-20T06:40:36.895Z,3184.00
2023-05-20T06:41:36.901Z,3440.00
2023-05-20T06:42:36.900Z,3648.00
2023-05-20T06:43:36.904Z,3804.00
2023-05-20T06:44:36.905Z,3988.00
2023-05-20T06:45:36.893Z,4068.00
2023-05-20T06:46:36.987Z,4296.00
2023-05-20T06:47:37.017Z,4028.00
2023-05-20T06:48:36.901Z,3808.00
2023-05-20T06:49:36.906Z,3880.00
2023-05-20T06:50:36.897Z,4104.00
2023-05-20T06:51:36.902Z,4388.00
2023-05-20T06:52:36.899Z,4700.00
2023-05-20T06:53:36.904Z,4876.00
2023-05-20T06:54:36.906Z,4980.00
2023-05-20T06:55:37.048Z,5108.00
2023-05-20T06:56:36.896Z,4556.00
2023-05-20T06:57:36.900Z,4036.00
2023-05-20T06:58:36.899Z,3784.00
2023-05-20T06:59:36.912Z,3776.00
2023-05-20T07:00:36.900Z,4192.00
2023-05-20T07:01:36.921Z,4516.00
2023-05-20T07:02:36.940Z,4256.00
2023-05-20T07:03:37.035Z,3928.00
2023-05-20T07:04:36.918Z,3948.00
2023-05-20T07:05:36.953Z,4108.00
2023-05-20T07:06:36.896Z,4084.00
2023-05-20T07:07:36.898Z,4148.00
2023-05-20T07:08:36.898Z,4408.00
2023-05-20T07:09:36.908Z,4604.00
2023-05-20T07:10:36.901Z,4744.00
2023-05-20T07:11:36.900Z,4816.00
2023-05-20T07:12:37.106Z,4588.00
2023-05-20T07:13:36.911Z,4016.00
2023-05-20T07:14:36.896Z,3952.00
2023-05-20T07:15:37.064Z,3912.00
2023-05-20T07:16:36.967Z,4028.00
2023-05-20T07:17:36.942Z,4076.00
2023-05-20T07:18:36.904Z,3956.00
2023-05-20T07:19:36.926Z,4144.00
2023-05-20T07:20:36.896Z,4164.00
2023-05-20T07:21:36.905Z,4224.00
2023-05-20T07:22:36.902Z,4068.00
2023-05-20T07:23:36.904Z,4048.00
2023-05-20T07:24:36.898Z,3996.00
2023-05-20T07:25:36.935Z,4188.00
2023-05-20T07:26:36.895Z,4180.00
2023-05-20T07:27:36.898Z,4060.00
2023-05-20T07:28:36.898Z,4380.00
2023-05-20T07:29:36.905Z,4200.00
2023-05-20T07:30:36.900Z,4040.00
2023-05-20T07:31:36.930Z,4028.00
2023-05-20T07:32:36.987Z,4112.00
2023-05-20T07:33:36.907Z,4220.00
2023-05-20T07:34:36.908Z,4372.00
2023-05-20T07:35:37.086Z,4580.00
2023-05-20T07:36:36.901Z,4872.00
2023-05-20T07:37:36.904Z,4808.00
2023-05-20T07:38:36.903Z,4448.00
2023-05-20T07:39:36.920Z,4400.00
2023-05-20T07:40:36.905Z,4780.00
2023-05-20T07:41:36.914Z,5220.00
2023-05-20T07:42:36.910Z,5380.00
2023-05-20T07:43:36.920Z,5348.00
2023-05-20T07:44:36.908Z,5360.00
2023-05-20T07:45:37.432Z,5416.00
2023-05-20T07:46:36.952Z,5636.00
2023-05-20T07:47:36.965Z,6252.00
2023-05-20T07:48:36.909Z,6532.00
2023-05-20T07:49:36.912Z,6468.00
2023-05-20T07:50:36.920Z,6256.00
2023-05-20T07:51:36.946Z,6632.00
2023-05-20T07:52:54.482Z,6820.00
2023-05-20T07:53:36.913Z,6672.00
2023-05-20T07:54:36.908Z,6368.00
2023-05-20T07:55:37.110Z,6292.00
2023-05-20T07:56:36.911Z,6864.00
2023-05-20T07:57:36.917Z,7284.00
2023-05-20T07:58:36.911Z,7712.00
2023-05-20T07:59:36.922Z,7804.00
2023-05-20T08:00:36.912Z,8044.00
2023-05-20T08:01:36.922Z,8892.00
2023-05-20T08:02:36.965Z,8992.00
2023-05-20T08:03:37.087Z,9828.00
2023-05-20T08:04:36.992Z,10660.00
2023-05-20T08:05:36.916Z,11620.00
2023-05-20T08:06:36.918Z,11204.00
2023-05-20T08:07:36.946Z,9860.00
2023-05-20T08:08:36.923Z,11112.00
2023-05-20T08:09:36.918Z,10536.00
2023-05-20T08:10:36.923Z,10560.00
2023-05-20T08:11:36.931Z,11116.00
2023-05-20T08:12:36.923Z,10304.00
2023-05-20T08:13:36.924Z,10136.00
2023-05-20T08:14:36.926Z,9508.00
2023-05-20T08:15:36.933Z,9816.00
2023-05-20T08:16:36.947Z,8892.00
2023-05-20T08:17:36.951Z,7580.00
2023-05-20T08:18:36.925Z,8500.00
2023-05-20T08:19:36.967Z,7116.00
2023-05-20T08:20:36.939Z,6972.00
2023-05-20T08:21:36.930Z,7992.00
2023-05-20T08:22:36.929Z,6972.00
2023-05-20T08:23:38.938Z,8664.00
2023-05-20T08:24:36.929Z,7732.00
2023-05-20T08:25:36.979Z,8692.00
2023-05-20T08:26:36.930Z,8904.00
2023-05-20T08:27:36.943Z,9408.00
2023-05-20T08:28:36.940Z,8120.00
2023-05-20T08:29:36.944Z,7368.00
2023-05-20T08:30:36.936Z,8140.00
2023-05-20T08:31:37.003Z,10176.00
2023-05-20T08:32:36.965Z,9584.00
2023-05-20T08:33:36.956Z,8972.00
2023-05-20T08:34:36.941Z,7996.00
2023-05-20T08:35:36.992Z,8424.00
2023-05-20T08:36:36.941Z,6992.00
2023-05-20T08:37:36.955Z,7960.00
2023-05-20T08:38:36.949Z,7940.00
2023-05-20T08:39:36.973Z,5444.00
2023-05-20T08:40:36.950Z,5756.00
2023-05-20T08:41:36.951Z,8696.00
2023-05-20T08:42:36.958Z,8188.00
2023-05-20T08:43:36.958Z,6984.00
2023-05-20T08:44:36.947Z,5264.00
2023-05-20T08:45:36.978Z,4848.00
2023-05-20T08:46:36.982Z,6924.00
2023-05-20T08:47:36.974Z,7004.00
2023-05-20T08:48:37.007Z,7188.00
2023-05-20T08:49:36.958Z,8244.00
2023-05-20T08:50:36.955Z,10624.00
2023-05-20T08:51:36.967Z,8208.00
2023-05-20T08:52:36.963Z,6376.00
2023-05-20T08:53:36.958Z,5768.00
2023-05-20T08:54:36.960Z,5140.00
2023-05-20T08:55:36.998Z,6464.00
2023-05-20T08:56:36.970Z,5720.00
2023-05-20T08:57:36.965Z,6020.00
2023-05-20T08:58:36.966Z,6704.00
2023-05-20T08:59:36.980Z,6664.00
2023-05-20T09:00:36.962Z,5588.00
2023-05-20T09:01:37.016Z,5784.00
2023-05-20T09:02:36.990Z,6060.00
2023-05-20T09:03:36.971Z,5324.00
2023-05-20T09:04:37.005Z,6004.00
2023-05-20T09:05:37.039Z,5996.00
2023-05-20T09:06:36.969Z,5732.00
2023-05-20T09:07:36.976Z,4408.00
2023-05-20T09:08:36.974Z,4712.00
2023-05-20T09:09:36.975Z,4860.00
2023-05-20T09:10:36.978Z,5232.00
2023-05-20T09:11:37.015Z,4916.00
2023-05-20T09:12:36.987Z,5980.00
2023-05-20T09:13:36.983Z,6608.00
2023-05-20T09:14:36.981Z,5364.00
2023-05-20T09:15:37.231Z,4360.00
2023-05-20T09:16:36.989Z,4636.00
2023-05-20T09:17:37.049Z,5948.00
2023-05-20T09:18:36.997Z,5964.00
2023-05-20T09:19:37.139Z,6804.00
2023-05-20T09:20:36.989Z,7268.00
2023-05-20T09:21:36.990Z,5408.00
2023-05-20T09:22:36.983Z,5740.00
2023-05-20T09:23:36.992Z,7092.00
2023-05-20T09:24:36.997Z,6896.00
2023-05-20T09:25:37.185Z,7460.00
2023-05-20T09:26:37.012Z,5512.00
2023-05-20T09:27:37.118Z,4644.00
2023-05-20T09:28:36.990Z,5472.00
2023-05-20T09:29:36.992Z,6680.00
2023-05-20T09:30:36.990Z,5644.00
2023-05-20T09:31:37.040Z,4992.00
2023-05-20T09:32:37.014Z,4968.00
2023-05-20T09:33:37.007Z,4776.00
2023-05-20T09:34:36.999Z,4212.00
2023-05-20T09:35:37.026Z,4372.00
2023-05-20T09:36:37.011Z,3676.00
2023-05-20T09:37:37.000Z,3212.00
2023-05-20T09:38:37.007Z,3496.00
2023-05-20T09:39:37.000Z,4484.00
2023-05-20T09:40:37.014Z,5524.00
2023-05-20T09:41:37.076Z,5072.00
2023-05-20T09:42:37.002Z,4688.00
2023-05-20T09:43:37.042Z,5364.00
2023-05-20T09:44:37.005Z,6292.00
2023-05-20T09:45:37.270Z,6168.00
2023-05-20T09:46:37.089Z,6720.00
2023-05-20T09:47:37.028Z,7164.00
2023-05-20T09:48:37.024Z,6644.00
2023-05-20T09:49:37.016Z,6588.00
2023-05-20T09:50:37.015Z,6480.00
2023-05-20T09:51:37.022Z,5440.00
2023-05-20T09:52:37.018Z,5320.00
2023-05-20T09:53:37.032Z,5748.00
2023-05-20T09:54:37.021Z,5192.00
2023-05-20T09:55:37.265Z,5312.00
2023-05-20T09:56:37.028Z,5092.00
2023-05-20T09:57:37.030Z,5696.00
2023-05-20T09:58:37.031Z,6092.00
2023-05-20T09:59:37.079Z,6444.00
2023-05-20T10:00:37.030Z,7420.00
2023-05-20T10:01:37.095Z,7612.00
2023-05-20T10:02:37.145Z,7900.00
2023-05-20T10:03:37.253Z,7904.00
2023-05-20T10:04:37.040Z,7880.00
2023-05-20T10:05:37.196Z,7660.00
2023-05-20T10:06:37.032Z,7188.00
2023-05-20T10:07:42.071Z,6356.00
2023-05-20T10:08:37.038Z,7540.00
2023-05-20T10:09:37.034Z,10260.00
2023-05-20T10:10:37.038Z,12516.00
2023-05-20T10:11:37.034Z,13540.00
2023-05-20T10:12:37.040Z,13808.00
2023-05-20T10:13:37.035Z,12692.00
2023-05-20T10:14:37.040Z,10872.00
2023-05-20T10:15:37.334Z,8856.00
2023-05-20T10:16:37.060Z,11676.00
2023-05-20T10:17:37.076Z,14788.00
2023-05-20T10:18:37.053Z,48032.00
2023-05-20T10:19:37.040Z,13888.00
2023-05-20T10:20:37.046Z,13220.00
2023-05-20T10:21:37.049Z,22048.00
2023-05-20T10:22:37.057Z,9280.00
2023-05-20T10:23:37.049Z,6908.00
2023-05-20T10:24:37.053Z,5532.00
2023-05-20T10:25:37.313Z,5412.00
2023-05-20T10:26:37.054Z,5956.00
2023-05-20T10:27:37.058Z,5756.00
2023-05-20T10:28:37.056Z,5100.00
2023-05-20T10:29:37.061Z,5724.00
2023-05-20T10:30:37.157Z,7320.00
2023-05-20T10:31:37.089Z,7600.00
2023-05-20T10:32:37.169Z,8256.00
2023-05-20T10:33:37.111Z,8172.00
2023-05-20T10:34:37.075Z,8252.00
2023-05-20T10:35:37.065Z,9532.00
2023-05-20T10:36:37.072Z,9576.00
2023-05-20T10:37:37.070Z,9036.00
2023-05-20T10:38:37.078Z,8640.00
2023-05-20T10:39:37.069Z,7892.00
2023-05-20T10:40:37.206Z,6600.00
2023-05-20T10:41:37.070Z,6052.00
2023-05-20T10:42:37.082Z,6696.00
2023-05-20T10:43:37.080Z,7172.00
2023-05-20T10:44:37.082Z,7400.00
2023-05-20T10:45:37.077Z,8116.00
2023-05-20T10:46:53.825Z,9376.00
2023-05-20T10:47:37.281Z,9248.00
2023-05-20T10:48:37.188Z,8476.00
2023-05-20T10:49:37.135Z,8592.00
2023-05-20T10:50:37.106Z,10768.00
2023-05-20T10:51:37.094Z,10104.00
2023-05-20T10:52:37.099Z,7112.00
2023-05-20T10:53:37.087Z,6524.00
2023-05-20T10:54:37.093Z,6416.00
2023-05-20T10:55:37.093Z,6420.00
2023-05-20T10:56:37.098Z,5488.00
2023-05-20T10:57:37.097Z,5760.00
2023-05-20T10:58:37.091Z,7460.00
2023-05-20T10:59:37.096Z,9544.00
2023-05-20T11:00:37.414Z,11220.00
2023-05-20T11:01:37.154Z,10872.00
2023-05-20T11:02:37.207Z,9968.00
2023-05-20T11:03:37.276Z,12356.00
2023-05-20T11:04:37.104Z,12512.00
2023-05-20T11:05:37.131Z,13496.00
2023-05-20T11:06:37.116Z,14936.00
2023-05-20T11:07:37.107Z,14720.00
2023-05-20T11:08:37.123Z,19584.00
2023-05-20T11:09:37.120Z,15312.00
2023-05-20T11:10:37.126Z,15056.00
2023-05-20T11:11:37.116Z,14464.00
2023-05-20T11:12:37.165Z,11712.00
2023-05-20T11:13:37.119Z,12752.00
2023-05-20T11:14:37.126Z,12780.00
2023-05-20T11:15:37.126Z,14564.00
2023-05-20T11:16:37.141Z,15648.00
2023-05-20T11:17:37.197Z,10840.00
2023-05-20T11:18:37.135Z,8788.00
2023-05-20T11:19:37.214Z,8692.00
2023-05-20T11:20:37.131Z,8068.00
2023-05-20T11:21:37.136Z,10744.00
2023-05-20T11:22:37.150Z,18240.00
2023-05-20T11:23:38.725Z,12164.00
2023-05-20T11:24:37.149Z,10740.00
2023-05-20T11:25:37.146Z,12200.00
2023-05-20T11:26:37.160Z,11796.00
2023-05-20T11:27:37.161Z,15220.00
2023-05-20T11:28:37.158Z,13492.00
2023-05-20T11:29:37.162Z,13664.00
2023-05-20T11:30:37.433Z,10568.00
2023-05-20T11:31:37.198Z,12808.00
2023-05-20T11:32:37.177Z,12976.00
2023-05-20T11:33:37.172Z,14168.00
2023-05-20T11:34:37.169Z,14948.00
2023-05-20T11:35:37.195Z,12676.00
2023-05-20T11:36:37.172Z,13448.00
2023-05-20T11:37:37.167Z,13084.00
2023-05-20T11:38:37.191Z,16584.00
2023-05-20T11:39:37.198Z,15692.00
2023-05-20T11:40:49.713Z,15284.00
2023-05-20T11:41:37.180Z,7248.00
2023-05-20T11:42:37.182Z,7392.00
2023-05-20T11:43:37.186Z,8236.00
2023-05-20T11:44:37.193Z,9760.00
2023-05-20T11:45:37.197Z,13256.00
2023-05-20T11:46:37.397Z,15216.00
2023-05-20T11:47:37.215Z,14960.00
2023-05-20T11:48:37.194Z,14640.00
2023-05-20T11:49:37.197Z,19584.00
2023-05-20T11:50:37.197Z,15724.00
2023-05-20T11:51:37.215Z,15528.00
2023-05-20T11:52:37.206Z,16896.00
2023-05-20T11:53:37.201Z,17376.00
2023-05-20T11:54:37.214Z,10868.00
2023-05-20T11:55:37.210Z,7752.00
2023-05-20T11:56:37.249Z,9732.00
2023-05-20T11:57:37.218Z,12616.00
2023-05-20T11:58:37.226Z,11960.00
2023-05-20T11:59:37.217Z,13720.00
2023-05-20T12:00:49.817Z,22272.00
2023-05-20T12:01:37.229Z,20256.00
2023-05-20T12:02:37.301Z,14332.00
2023-05-20T12:03:37.433Z,22080.00
2023-05-20T12:04:37.350Z,22080.00
2023-05-20T12:05:37.237Z,15184.00
2023-05-20T12:06:37.249Z,12880.00
2023-05-20T12:07:37.313Z,13120.00
2023-05-20T12:08:37.251Z,13192.00
2023-05-20T12:09:37.246Z,14096.00
2023-05-20T12:10:37.411Z,15084.00
2023-05-20T12:11:37.264Z,16144.00
2023-05-20T12:12:37.266Z,16020.00
2023-05-20T12:13:37.279Z,22176.00
2023-05-20T12:14:37.316Z,19744.00
2023-05-20T12:15:37.264Z,22400.00
2023-05-20T12:16:37.409Z,23968.00
2023-05-20T12:17:37.325Z,23360.00
2023-05-20T12:18:37.288Z,18208.00
2023-05-20T12:19:39.061Z,12892.00
2023-05-20T12:20:37.711Z,11108.00
2023-05-20T12:21:37.282Z,10464.00
2023-05-20T12:22:37.300Z,20544.00
2023-05-20T12:23:37.340Z,12844.00